createdAt,value
2022-08-28T00:00:15.511Z,101040.88
2022-08-28T00:02:42.934Z,101040.69
2022-08-28T00:05:11.751Z,101042.34
2022-08-28T00:07:38.836Z,101045.69
2022-08-28T00:10:07.476Z,101050.00
2022-08-28T00:12:35.628Z,101052.69
2022-08-28T00:15:03.630Z,101052.25
2022-08-28T00:17:30.287Z,101052.00
2022-08-28T00:19:56.997Z,101050.38
2022-08-28T00:22:23.724Z,101061.94
2022-08-28T00:24:50.366Z,101052.69
2022-08-28T00:27:40.056Z,101056.78
2022-08-28T00:30:07.337Z,101061.94
2022-08-28T00:32:35.627Z,101060.50
2022-08-28T00:35:03.010Z,101060.28
2022-08-28T00:37:29.692Z,101052.69
2022-08-28T00:39:56.407Z,101053.06
2022-08-28T00:42:23.065Z,101054.09
2022-08-28T00:44:49.722Z,101046.44
2022-08-28T00:47:16.402Z,101049.94
2022-08-28T00:49:49.861Z,101046.44
2022-08-28T00:52:17.364Z,101044.44
2022-08-28T00:54:59.058Z,101034.50
2022-08-28T00:57:32.355Z,101041.34
2022-08-28T00:59:59.103Z,101042.19
2022-08-28T01:02:26.664Z,101033.97
2022-08-28T01:04:53.845Z,101032.94
2022-08-28T01:07:23.281Z,101030.47
2022-08-28T01:09:53.505Z,101033.13
2022-08-28T01:12:25.039Z,101022.41
2022-08-28T01:14:53.679Z,101027.78
2022-08-28T01:17:23.683Z,101033.13
2022-08-28T01:19:58.351Z,101029.88
2022-08-28T01:22:33.646Z,101030.66
2022-08-28T01:25:01.171Z,101038.31
2022-08-28T01:27:28.258Z,101040.19
2022-08-28T01:29:55.358Z,101032.38
2022-08-28T01:32:40.931Z,101038.53
2022-08-28T01:35:11.531Z,101043.53
2022-08-28T01:37:38.636Z,101042.47
2022-08-28T01:40:06.783Z,101042.91
2022-08-28T01:42:39.313Z,101034.44
2022-08-28T01:45:08.107Z,101047.41
2022-08-28T01:47:34.733Z,101048.66
2022-08-28T01:50:01.543Z,101048.25
2022-08-28T01:52:29.007Z,101046.41
2022-08-28T01:54:55.862Z,101040.88
2022-08-28T01:57:24.752Z,101043.34
2022-08-28T01:59:51.830Z,101046.44
2022-08-28T02:02:18.640Z,101047.91
2022-08-28T02:04:48.063Z,101047.53
2022-08-28T02:07:16.925Z,101052.88
2022-08-28T02:09:43.735Z,101054.75
2022-08-28T02:12:10.416Z,101050.22
2022-08-28T02:14:38.695Z,101060.09
2022-08-28T02:17:05.381Z,101058.25
2022-08-28T02:19:32.271Z,101059.28
2022-08-28T02:21:58.958Z,101066.50
2022-08-28T02:24:25.678Z,101062.97
2022-08-28T02:26:52.327Z,101067.94
2022-08-28T02:29:19.001Z,101066.72
2022-08-28T02:31:45.679Z,101068.41
2022-08-28T02:34:12.302Z,101062.41
2022-08-28T02:36:42.725Z,101061.00
2022-08-28T02:39:09.803Z,101071.28
2022-08-28T02:41:36.635Z,101073.13
2022-08-28T02:44:03.778Z,101069.44
2022-08-28T02:46:30.566Z,101064.94
2022-08-28T02:48:57.278Z,101065.72
2022-08-28T02:51:24.754Z,101066.78
2022-08-28T02:53:52.250Z,101065.34
2022-08-28T02:56:19.284Z,101068.81
2022-08-28T02:58:45.967Z,101070.25
2022-08-28T03:01:13.500Z,101072.50
2022-08-28T03:03:41.635Z,101076.41
2022-08-28T03:06:09.536Z,101072.50
2022-08-28T03:08:36.409Z,101074.19
2022-08-28T03:11:03.314Z,101069.66
2022-08-28T03:13:30.680Z,101073.38
2022-08-28T03:15:57.811Z,101077.69
2022-08-28T03:18:25.653Z,101069.88
2022-08-28T03:20:53.582Z,101076.47
2022-08-28T03:23:29.143Z,101078.13
2022-08-28T03:26:07.407Z,101075.84
2022-08-28T03:28:39.123Z,101078.72
2022-08-28T03:31:10.487Z,101070.31
2022-08-28T03:33:37.475Z,101077.13
2022-08-28T03:36:10.333Z,101085.16
2022-08-28T03:38:37.004Z,101076.91
2022-08-28T03:41:03.690Z,101077.72
2022-08-28T03:43:30.461Z,101077.28
2022-08-28T03:46:02.666Z,101075.03
2022-08-28T03:48:34.882Z,101074.22
2022-08-28T03:51:01.813Z,101075.03
2022-08-28T03:53:29.747Z,101077.50
2022-08-28T03:55:57.544Z,101082.44
2022-08-28T03:58:24.402Z,101081.81
2022-08-28T04:00:51.171Z,101083.50
2022-08-28T04:03:18.281Z,101077.28
2022-08-28T04:05:45.925Z,101091.91
2022-08-28T04:08:16.004Z,101090.69
2022-08-28T04:10:46.008Z,101093.75
2022-08-28T04:13:13.697Z,101092.53
2022-08-28T04:15:41.527Z,101093.94
2022-08-28T04:18:09.113Z,101099.75
2022-08-28T04:20:36.402Z,101098.31
2022-08-28T04:23:04.072Z,101101.03
2022-08-28T04:25:31.496Z,101100.81
2022-08-28T04:27:58.262Z,101102.28
2022-08-28T04:30:25.168Z,101100.84
2022-08-28T04:32:51.823Z,101110.31
2022-08-28T04:35:18.430Z,101104.53
2022-08-28T04:37:45.074Z,101113.38
2022-08-28T04:40:13.297Z,101120.75
2022-08-28T04:42:40.425Z,101121.22
2022-08-28T04:45:07.763Z,101121.63
2022-08-28T04:47:38.876Z,101123.06
2022-08-28T04:50:07.482Z,101120.41
2022-08-28T04:52:34.448Z,101121.25
2022-08-28T04:55:01.615Z,101120.81
2022-08-28T04:57:28.335Z,101116.69
2022-08-28T04:59:54.964Z,101122.03
2022-08-28T05:02:21.695Z,101122.03
2022-08-28T05:04:48.432Z,101123.28
2022-08-28T05:07:15.085Z,101118.56
2022-08-28T05:09:41.844Z,101119.38
2022-08-28T05:12:08.569Z,101119.38
2022-08-28T05:14:36.615Z,101128.03
2022-08-28T05:17:03.290Z,101129.69
2022-08-28T05:19:29.927Z,101131.53
2022-08-28T05:21:56.725Z,101129.28
2022-08-28T05:24:23.475Z,101133.81
2022-08-28T05:26:50.220Z,101130.09
2022-08-28T05:29:17.487Z,101136.88
2022-08-28T05:31:44.559Z,101140.59
2022-08-28T05:34:13.359Z,101140.22
2022-08-28T05:36:40.255Z,101135.69
2022-08-28T05:39:09.893Z,101143.72
2022-08-28T05:41:37.360Z,101148.44
2022-08-28T05:44:07.374Z,101149.28
2022-08-28T05:46:36.527Z,101154.81
2022-08-28T05:49:07.724Z,101155.63
2022-08-28T05:51:37.141Z,101157.28
2022-08-28T05:54:04.257Z,101161.19
2022-08-28T05:56:34.614Z,101152.16
2022-08-28T05:59:02.132Z,101158.53
2022-08-28T06:01:33.794Z,101161.22
2022-08-28T06:04:03.684Z,101153.41
2022-08-28T06:06:34.246Z,101158.53
2022-08-28T06:09:03.711Z,101167.38
2022-08-28T06:11:31.270Z,101161.22
2022-08-28T06:14:04.551Z,101168.00
2022-08-28T06:16:32.536Z,101162.22
2022-08-28T06:19:00.511Z,101163.91
2022-08-28T06:21:27.752Z,101166.56
2022-08-28T06:23:54.425Z,101164.91
2022-08-28T06:26:21.045Z,101176.84
2022-08-28T06:28:47.754Z,101177.66
2022-08-28T06:31:24.529Z,101175.19
2022-08-28T06:33:57.292Z,101173.34
2022-08-28T06:36:27.565Z,101171.28
2022-08-28T06:38:58.084Z,101174.16
2022-08-28T06:41:25.687Z,101176.44
2022-08-28T06:43:52.350Z,101172.72
2022-08-28T06:46:19.060Z,101180.75
2022-08-28T06:48:46.011Z,101182.63
2022-08-28T06:51:12.984Z,101178.06
2022-08-28T06:53:41.588Z,101190.19
2022-08-28T06:56:25.441Z,101184.84
2022-08-28T06:58:52.698Z,101185.88
2022-08-28T07:01:31.743Z,101187.31
2022-08-28T07:04:01.272Z,101192.66
2022-08-28T07:06:34.668Z,101192.88
2022-08-28T07:09:02.194Z,101203.78
2022-08-28T07:11:31.451Z,101202.78
2022-08-28T07:13:58.597Z,101206.88
2022-08-28T07:16:28.402Z,101207.28
2022-08-28T07:18:55.343Z,101213.66
2022-08-28T07:21:22.141Z,101215.50
2022-08-28T07:23:49.275Z,101213.88
2022-08-28T07:26:22.824Z,101217.97
2022-08-28T07:28:50.832Z,101220.03
2022-08-28T07:31:26.157Z,101216.09
2022-08-28T07:33:56.193Z,101218.56
2022-08-28T07:36:28.778Z,101218.13
2022-08-28T07:38:59.226Z,101210.94
2022-08-28T07:41:30.693Z,101212.59
2022-08-28T07:44:16.103Z,101218.78
2022-08-28T07:46:43.434Z,101220.22
2022-08-28T07:49:10.690Z,101229.66
2022-08-28T07:51:37.823Z,101232.78
2022-08-28T07:54:05.027Z,101237.72
2022-08-28T07:56:31.748Z,101237.69
2022-08-28T07:58:59.539Z,101229.03
2022-08-28T08:01:27.763Z,101235.22
2022-08-28T08:04:01.125Z,101238.72
2022-08-28T08:06:34.109Z,101235.63
2022-08-28T08:09:01.936Z,101240.75
2022-08-28T08:11:32.278Z,101234.41
2022-08-28T08:14:04.719Z,101241.00
2022-08-28T08:16:34.968Z,101237.72
2022-08-28T08:19:02.156Z,101243.06
2022-08-28T08:21:30.421Z,101245.13
2022-08-28T08:23:57.346Z,101238.97
2022-08-28T08:26:26.298Z,101243.50
2022-08-28T08:28:52.949Z,101246.81
2022-08-28T08:31:33.181Z,101241.84
2022-08-28T08:34:03.575Z,101250.50
2022-08-28T08:36:32.323Z,101256.88
2022-08-28T08:39:00.314Z,101263.88
2022-08-28T08:41:47.924Z,101264.91
2022-08-28T08:44:21.242Z,101264.28
2022-08-28T08:47:16.219Z,101270.88
2022-08-28T08:50:00.487Z,101267.38
2022-08-28T08:52:45.685Z,101275.59
2022-08-28T08:55:27.422Z,101262.84
2022-08-28T08:58:32.382Z,101270.06
2022-08-28T09:01:09.698Z,101269.44
2022-08-28T09:04:15.828Z,101269.84
2022-08-28T09:06:50.834Z,101264.91
2022-08-28T09:09:20.621Z,101272.13
2022-08-28T09:11:56.957Z,101267.56
2022-08-28T09:14:33.000Z,101257.28
2022-08-28T09:17:00.995Z,101268.41
2022-08-28T09:19:27.716Z,101269.00
2022-08-28T09:21:54.673Z,101276.84
2022-08-28T09:24:32.325Z,101274.16
2022-08-28T09:27:14.184Z,101275.19
2022-08-28T09:29:46.371Z,101280.16
2022-08-28T09:32:21.995Z,101272.72
2022-08-28T09:35:19.259Z,101276.84
2022-08-28T09:37:46.078Z,101283.81
2022-08-28T09:40:52.117Z,101289.41
2022-08-28T09:43:26.843Z,101283.81
2022-08-28T09:45:53.472Z,101290.00
2022-08-28T09:48:40.197Z,101294.56
2022-08-28T09:51:08.037Z,101298.28
2022-08-28T09:53:38.708Z,101292.91
2022-08-28T09:56:18.522Z,101291.06
2022-08-28T09:58:48.628Z,101290.63
2022-08-28T10:01:34.015Z,101296.22
2022-08-28T10:04:25.340Z,101297.22
2022-08-28T10:07:10.406Z,101304.84
2022-08-28T10:10:13.998Z,101296.81
2022-08-28T10:12:54.138Z,101299.47
2022-08-28T10:15:43.136Z,101299.88
2022-08-28T10:18:34.780Z,101302.75
2022-08-28T10:21:13.089Z,101304.63
2022-08-28T10:24:09.697Z,101305.44
2022-08-28T10:27:03.708Z,101306.44
2022-08-28T10:29:49.545Z,101310.34
2022-08-28T10:32:25.165Z,101307.47
2022-08-28T10:34:52.921Z,101317.56
2022-08-28T10:37:44.988Z,101314.25
2022-08-28T10:40:21.157Z,101320.69
2022-08-28T10:42:53.591Z,101316.38
2022-08-28T10:45:24.008Z,101314.91
2022-08-28T10:47:53.353Z,101313.00
2022-08-28T10:50:27.262Z,101313.38
2022-08-28T10:53:10.243Z,101307.66
2022-08-28T10:55:54.009Z,101308.66
2022-08-28T10:58:24.424Z,101305.13
2022-08-28T11:00:57.643Z,101317.50
2022-08-28T11:03:41.037Z,101313.97
2022-08-28T11:06:20.623Z,101313.59
2022-08-28T11:08:52.199Z,101316.44
2022-08-28T11:11:49.214Z,101319.34
2022-08-28T11:14:23.536Z,101329.44
2022-08-28T11:16:50.534Z,101324.94
2022-08-28T11:19:44.542Z,101315.41
2022-08-28T11:22:23.384Z,101322.63
2022-08-28T11:24:55.976Z,101326.34
2022-08-28T11:27:33.780Z,101328.19
2022-08-28T11:30:09.438Z,101332.94
2022-08-28T11:32:59.454Z,101338.06
2022-08-28T11:35:44.367Z,101337.66
2022-08-28T11:38:11.904Z,101350.06
2022-08-28T11:40:40.669Z,101349.22
2022-08-28T11:43:16.961Z,101335.44
2022-08-28T11:45:46.791Z,101349.03
2022-08-28T11:48:23.403Z,101343.28
2022-08-28T11:50:55.782Z,101331.75
2022-08-28T11:53:33.269Z,101341.84
2022-08-28T11:56:31.830Z,101339.34
2022-08-28T11:59:13.771Z,101344.91
2022-08-28T12:01:40.966Z,101350.06
2022-08-28T12:04:08.631Z,101345.53
2022-08-28T12:06:44.508Z,101347.25
2022-08-28T12:09:13.555Z,101341.22
2022-08-28T12:11:42.128Z,101349.91
2022-08-28T12:14:33.328Z,101340.63
2022-08-28T12:17:00.097Z,101348.47
2022-08-28T12:19:36.521Z,101358.16
2022-08-28T12:22:17.285Z,101355.91
2022-08-28T12:24:51.277Z,101355.31
2022-08-28T12:27:18.124Z,101362.50
2022-08-28T12:29:54.767Z,101360.44
2022-08-28T12:32:50.458Z,101344.34
2022-08-28T12:35:24.340Z,101350.47
2022-08-28T12:37:54.256Z,101362.63
2022-08-28T12:40:21.103Z,101355.41
2022-08-28T12:42:57.235Z,101361.16
2022-08-28T12:45:36.275Z,101364.50
2022-08-28T12:48:13.398Z,101362.06
2022-08-28T12:50:40.106Z,101358.31
2022-08-28T12:53:13.446Z,101356.81
2022-08-28T12:55:40.844Z,101357.81
2022-08-28T12:58:27.018Z,101360.69
2022-08-28T13:00:57.500Z,101361.47
2022-08-28T13:03:24.508Z,101360.84
2022-08-28T13:06:07.628Z,101358.38
2022-08-28T13:08:34.870Z,101363.56
2022-08-28T13:11:01.657Z,101361.56
2022-08-28T13:13:34.132Z,101359.94
2022-08-28T13:16:09.022Z,101363.06
2022-08-28T13:18:42.424Z,101366.56
2022-08-28T13:21:15.153Z,101372.31
2022-08-28T13:23:42.454Z,101365.53
2022-08-28T13:26:10.906Z,101364.09
2022-08-28T13:28:40.073Z,101360.41
2022-08-28T13:31:07.176Z,101361.19
2022-08-28T13:33:34.049Z,101368.44
2022-08-28T13:36:19.944Z,101359.13
2022-08-28T13:38:46.808Z,101364.88
2022-08-28T13:41:13.525Z,101374.59
2022-08-28T13:43:45.713Z,101376.47
2022-08-28T13:46:13.021Z,101378.13
2022-08-28T13:48:39.994Z,101381.00
2022-08-28T13:51:10.795Z,101374.41
2022-08-28T13:53:39.257Z,101378.53
2022-08-28T13:56:06.566Z,101381.22
2022-08-28T13:58:33.408Z,101386.41
2022-08-28T14:01:00.432Z,101379.22
2022-08-28T14:03:36.484Z,101385.38
2022-08-28T14:06:14.540Z,101387.25
2022-08-28T14:08:43.619Z,101384.97
2022-08-28T14:11:12.679Z,101383.50
2022-08-28T14:13:47.392Z,101381.25
2022-08-28T14:16:23.724Z,101390.09
2022-08-28T14:18:52.776Z,101383.66
2022-08-28T14:21:19.731Z,101382.03
2022-08-28T14:23:46.731Z,101385.50
2022-08-28T14:26:13.407Z,101381.84
2022-08-28T14:28:40.015Z,101384.50
2022-08-28T14:31:10.008Z,101385.34
2022-08-28T14:33:39.161Z,101380.81
2022-08-28T14:36:08.420Z,101380.41
2022-08-28T14:38:35.759Z,101381.44
2022-08-28T14:41:02.923Z,101384.28
2022-08-28T14:43:30.433Z,101379.94
2022-08-28T14:45:57.211Z,101376.88
2022-08-28T14:48:23.932Z,101371.47
2022-08-28T14:50:50.665Z,101365.22
2022-08-28T14:53:17.438Z,101370.06
2022-08-28T14:55:49.798Z,101373.34
2022-08-28T14:58:19.537Z,101367.38
2022-08-28T15:00:49.529Z,101365.22
2022-08-28T15:03:18.522Z,101362.31
2022-08-28T15:05:45.165Z,101364.75
2022-08-28T15:08:14.597Z,101367.25
2022-08-28T15:10:42.327Z,101361.91
2022-08-28T15:13:10.373Z,101362.72
2022-08-28T15:15:39.601Z,101362.31
2022-08-28T15:18:07.390Z,101361.69
2022-08-28T15:20:40.608Z,101362.03
2022-08-28T15:23:07.496Z,101366.47
2022-08-28T15:25:34.147Z,101371.63
2022-08-28T15:28:00.833Z,101364.91
2022-08-28T15:30:27.533Z,101358.19
2022-08-28T15:32:54.317Z,101359.28
2022-08-28T15:35:21.005Z,101364.47
2022-08-28T15:37:47.903Z,101364.66
2022-08-28T15:40:33.266Z,101365.91
2022-08-28T15:43:00.232Z,101368.16
2022-08-28T15:45:27.112Z,101367.19
2022-08-28T15:47:54.272Z,101361.38
2022-08-28T15:50:21.062Z,101361.81
2022-08-28T15:52:48.032Z,101363.44
2022-08-28T15:55:14.694Z,101362.00
2022-08-28T15:57:41.453Z,101358.09
2022-08-28T16:00:10.483Z,101359.56
2022-08-28T16:02:37.555Z,101353.78
2022-08-28T16:05:04.796Z,101357.25
2022-08-28T16:07:31.495Z,101357.25
2022-08-28T16:09:58.137Z,101353.97
2022-08-28T16:12:25.566Z,101355.63
2022-08-28T16:14:52.291Z,101355.63
2022-08-28T16:17:19.080Z,101353.34
2022-08-28T16:19:46.777Z,101356.22
2022-08-28T16:22:16.117Z,101359.16
2022-08-28T16:24:43.407Z,101353.16
2022-08-28T16:27:13.208Z,101357.09
2022-08-28T16:29:42.911Z,101359.34
2022-08-28T16:32:09.658Z,101355.44
2022-08-28T16:34:39.114Z,101354.41
2022-08-28T16:37:06.190Z,101351.94
2022-08-28T16:39:35.360Z,101353.56
2022-08-28T16:42:02.263Z,101350.88
2022-08-28T16:44:29.187Z,101352.13
2022-08-28T16:46:56.320Z,101347.81
2022-08-28T16:49:23.782Z,101345.34
2022-08-28T16:51:50.641Z,101349.91
2022-08-28T16:54:21.524Z,101350.09
2022-08-28T16:56:48.227Z,101351.53
2022-08-28T16:59:20.460Z,101351.75
2022-08-28T17:01:53.030Z,101346.38
2022-08-28T17:04:22.935Z,101345.53
2022-08-28T17:06:49.895Z,101346.38
2022-08-28T17:09:16.701Z,101348.03
2022-08-28T17:11:52.038Z,101351.75
2022-08-28T17:14:19.979Z,101349.28
2022-08-28T17:16:46.765Z,101346.78
2022-08-28T17:19:14.120Z,101343.91
2022-08-28T17:21:59.351Z,101346.78
2022-08-28T17:24:26.052Z,101352.16
2022-08-28T17:26:52.725Z,101352.59
2022-08-28T17:29:19.375Z,101358.38
2022-08-28T17:31:46.276Z,101357.78
2022-08-28T17:34:13.305Z,101354.66
2022-08-28T17:36:42.349Z,101356.53
2022-08-28T17:39:13.233Z,101360.22
2022-08-28T17:41:39.986Z,101359.81
2022-08-28T17:44:07.328Z,101361.06
2022-08-28T17:46:37.699Z,101358.78
2022-08-28T17:49:06.562Z,101361.47
2022-08-28T17:51:43.677Z,101367.25
2022-08-28T17:54:15.572Z,101364.34
2022-08-28T17:56:42.506Z,101374.66
2022-08-28T17:59:10.500Z,101372.81
2022-08-28T18:01:38.657Z,101375.91
2022-08-28T18:04:05.685Z,101377.34
2022-08-28T18:06:32.580Z,101369.13
2022-08-28T18:08:59.281Z,101377.16
2022-08-28T18:11:26.258Z,101377.75
2022-08-28T18:13:52.880Z,101377.75
2022-08-28T18:16:20.119Z,101379.63
2022-08-28T18:18:46.965Z,101386.00
2022-08-28T18:21:14.298Z,101389.31
2022-08-28T18:23:41.441Z,101393.22
2022-08-28T18:26:08.636Z,101395.69
2022-08-28T18:28:35.498Z,101403.09
2022-08-28T18:31:02.766Z,101406.00
2022-08-28T18:33:29.750Z,101404.75
2022-08-28T18:35:56.888Z,101409.09
2022-08-28T18:38:28.077Z,101406.59
2022-08-28T18:40:55.466Z,101414.00
2022-08-28T18:43:22.546Z,101415.63
2022-08-28T18:45:49.540Z,101416.84
2022-08-28T18:48:16.456Z,101413.72
2022-08-28T18:50:46.269Z,101413.13
2022-08-28T18:53:14.664Z,101418.88
2022-08-28T18:55:41.362Z,101417.25
2022-08-28T18:58:08.029Z,101416.03
2022-08-28T19:00:38.236Z,101418.28
2022-08-28T19:03:06.134Z,101423.00
2022-08-28T19:05:33.700Z,101414.75
2022-08-28T19:08:00.423Z,101413.28
2022-08-28T19:10:34.146Z,101419.88
2022-08-28T19:13:01.667Z,101420.91
2022-08-28T19:15:29.061Z,101416.34
2022-08-28T19:17:55.888Z,101421.72
2022-08-28T19:20:22.642Z,101422.34
2022-08-28T19:22:49.349Z,101430.34
2022-08-28T19:25:27.907Z,101430.56
2022-08-28T19:27:59.469Z,101432.00
2022-08-28T19:30:28.084Z,101424.38
2022-08-28T19:32:55.057Z,101427.50
2022-08-28T19:35:24.337Z,101424.19
2022-08-28T19:37:52.186Z,101423.78
2022-08-28T19:40:20.646Z,101437.56
2022-08-28T19:42:47.790Z,101428.50
2022-08-28T19:45:15.161Z,101431.81
2022-08-28T19:47:42.062Z,101440.25
2022-08-28T19:50:10.422Z,101439.19
2022-08-28T19:52:37.121Z,101441.44
2022-08-28T19:55:05.710Z,101439.41
2022-08-28T19:57:33.083Z,101449.09
2022-08-28T20:00:00.214Z,101439.84
2022-08-28T20:02:28.513Z,101443.56
2022-08-28T20:04:55.556Z,101449.09
2022-08-28T20:07:22.821Z,101448.47
2022-08-28T20:09:49.472Z,101453.00
2022-08-28T20:12:16.113Z,101456.88
2022-08-28T20:14:44.807Z,101461.53
2022-08-28T20:17:11.678Z,101458.66
2022-08-28T20:19:38.755Z,101466.88
2022-08-28T20:22:05.441Z,101471.41
2022-08-28T20:24:32.106Z,101470.59
2022-08-28T20:26:58.744Z,101472.25
2022-08-28T20:29:25.529Z,101474.91
2022-08-28T20:31:53.154Z,101471.44
2022-08-28T20:34:20.535Z,101469.53
2022-08-28T20:36:47.790Z,101479.75
2022-08-28T20:39:15.515Z,101479.09
2022-08-28T20:41:42.851Z,101477.88
2022-08-28T20:44:12.861Z,101481.16
2022-08-28T20:46:41.629Z,101480.13
2022-08-28T20:49:12.619Z,101468.63
2022-08-28T20:52:00.988Z,101479.09
2022-08-28T20:54:30.262Z,101480.31
2022-08-28T20:56:59.928Z,101479.53
2022-08-28T20:59:29.683Z,101477.22
2022-08-28T21:02:08.672Z,101483.78
2022-08-28T21:04:36.803Z,101487.69
2022-08-28T21:07:05.881Z,101478.84
2022-08-28T21:09:33.475Z,101482.78
2022-08-28T21:12:19.916Z,101490.97
2022-08-28T21:14:51.565Z,101496.75
2022-08-28T21:17:29.991Z,101500.81
2022-08-28T21:20:09.265Z,101509.81
2022-08-28T21:22:37.387Z,101497.88
2022-08-28T21:25:09.230Z,101497.63
2022-08-28T21:27:36.692Z,101493.75
2022-08-28T21:30:04.436Z,101500.31
2022-08-28T21:32:32.712Z,101498.63
2022-08-28T21:35:00.713Z,101493.94
2022-08-28T21:37:27.363Z,101491.44
2022-08-28T21:39:56.519Z,101494.38
2022-08-28T21:42:23.640Z,101503.22
2022-08-28T21:44:51.946Z,101504.03
2022-08-28T21:47:21.464Z,101499.31
2022-08-28T21:49:50.133Z,101502.00
2022-08-28T21:52:18.445Z,101510.22
2022-08-28T21:54:45.258Z,101506.50
2022-08-28T21:57:11.986Z,101513.06
2022-08-28T21:59:39.005Z,101513.44
2022-08-28T22:02:05.830Z,101520.47
2022-08-28T22:04:32.653Z,101515.31
2022-08-28T22:06:59.275Z,101516.34
2022-08-28T22:09:25.902Z,101520.84
2022-08-28T22:11:52.583Z,101518.19
2022-08-28T22:14:19.243Z,101520.91
2022-08-28T22:16:46.529Z,101518.38
2022-08-28T22:19:13.212Z,101520.84
2022-08-28T22:21:58.339Z,101511.13
2022-08-28T22:24:24.982Z,101524.25
2022-08-28T22:26:57.390Z,101523.94
2022-08-28T22:29:24.682Z,101521.84
2022-08-28T22:31:51.364Z,101522.66
2022-08-28T22:34:18.254Z,101528.00
2022-08-28T22:36:44.920Z,101529.25
2022-08-28T22:39:11.551Z,101532.16
2022-08-28T22:41:38.701Z,101528.59
2022-08-28T22:44:05.457Z,101529.88
2022-08-28T22:46:32.092Z,101527.75
2022-08-28T22:48:59.298Z,101533.69
2022-08-28T22:51:26.030Z,101538.00
2022-08-28T22:53:52.737Z,101539.03
2022-08-28T22:56:19.510Z,101534.06
2022-08-28T22:58:46.413Z,101537.38
2022-08-28T23:01:17.641Z,101536.53
2022-08-28T23:03:45.065Z,101542.50
2022-08-28T23:06:12.459Z,101545.91
2022-08-28T23:08:39.104Z,101546.09
2022-08-28T23:11:06.104Z,101553.41
2022-08-28T23:13:33.044Z,101545.72
2022-08-28T23:16:00.028Z,101553.75
2022-08-28T23:18:26.719Z,101553.94
2022-08-28T23:20:55.285Z,101553.69
2022-08-28T23:23:24.046Z,101554.72
2022-08-28T23:25:51.195Z,101552.03
2022-08-28T23:28:18.831Z,101549.56
2022-08-28T23:30:48.510Z,101546.88
2022-08-28T23:33:24.056Z,101545.06
2022-08-28T23:35:51.695Z,101545.91
2022-08-28T23:38:18.567Z,101545.91
2022-08-28T23:40:46.247Z,101539.50
2022-08-28T23:43:12.874Z,101541.22
2022-08-28T23:45:41.721Z,101542.97
2022-08-28T23:48:08.681Z,101535.81
2022-08-28T23:50:35.695Z,101534.19
2022-08-28T23:53:04.105Z,101537.16
2022-08-28T23:55:31.054Z,101542.56
2022-08-28T23:58:00.172Z,101541.78
